< Typhoon 196827 1969 Season Typhoon 196902 >
Typhoon 196901 (PHYLLIS)
General InformationTrack Information on Google Maps || Disaster Info.ResourceGoogle EarthGE AnimationAtom FeedGeoJSON
Detalied Best Track (Time Zone = UTC)
Year Month Day Hour Lat. Long. Pressure (hPa) Wind (kt) Class Image Chart
1969 1 16 06 7.1 177.3 1000 0 2 -- Chart
1969 1 16 12 7.5 175.9 995 0 9 -- Chart
1969 1 16 18 7.9 174.3 990 0 9 -- Chart
1969 1 17 00 8.3 172.7 985 0 9 -- Chart
1969 1 17 06 8.7 171.1 980 0 9 -- Chart
1969 1 17 12 8.9 169.3 975 0 9 -- Chart
1969 1 17 18 9.1 167.5 975 0 9 -- Chart
1969 1 18 00 9.2 165.8 975 0 9 -- Chart
1969 1 18 06 9.6 163.9 970 0 9 -- Chart
1969 1 18 12 10.1 162.0 970 0 9 -- Chart
1969 1 18 18 10.7 160.3 965 0 9 -- Chart
1969 1 19 00 11.2 159.1 970 0 9 -- Chart
1969 1 19 06 11.5 157.9 970 0 9 -- Chart
1969 1 19 12 11.9 156.5 970 0 9 -- Chart
1969 1 19 18 12.3 154.9 970 0 9 -- Chart
1969 1 20 00 12.9 153.2 975 0 9 -- Chart
1969 1 20 06 13.3 152.3 975 0 9 -- Chart
1969 1 20 12 13.7 151.2 975 0 9 -- Chart
1969 1 20 18 13.9 150.5 980 0 9 -- Chart
1969 1 21 00 13.7 149.7 980 0 9 -- Chart
1969 1 21 06 14.1 149.6 985 0 9 -- Chart
1969 1 21 12 13.8 150.0 985 0 9 -- Chart
1969 1 21 18 12.7 148.5 990 0 9 -- Chart
1969 1 22 00 13.3 146.2 995 0 9 -- Chart
1969 1 22 06 13.6 144.2 996 0 9 -- Chart
1969 1 22 12 13.7 142.3 1000 0 2 -- Chart
1969 1 22 18 13.3 140.4 1000 0 2 -- Chart
1969 1 23 00 13.0 138.5 1000 0 2 -- Chart
1969 1 23 06 13.0 137.0 1000 0 2 -- Chart
1969 1 23 12 13.0 135.0 1002 0 2 -- Chart
1969 1 23 18 13.0 133.0 1004 0 2 -- Chart
1969 1 24 00 13.0 131.0 1006 0 2 -- Chart
1969 1 24 06 13.0 129.5 1006 0 2 -- Chart
1969 1 24 12 13.0 128.0 1006 0 2 -- Chart
1969 1 24 18 13.0 127.0 1006 0 2 -- Chart
Japan Meteorological Agency Best Track Data | Correction Date : 1989-06-01
< Typhoon 196827 1969 Season Typhoon 196902 >

Help